Oliver Springs, Tennessee
Current Conditions -  °F | °C
As of 12:53 PM on Sunday 25 Jan 2015 (Local Time) from KOQT Reporting Station
Clear Clear  
Wind Chill: 47°   Ceiling: Unl
Heat Index: 49°   Visibility: 10mi
Dew Point: 32°   Wind: 6mph
Humidity: 52%   Direction: 280°W
Pressure: 29.8"   Gusts: NA
Location:  36.04°N, 84.34°W
Report Text: KOQT 251753Z AUTO 28005KT 10SM CLR 09/00 A2980 RMK AO2 SLP099 T00940000 10094 21022 58030
Loading
Personal Weather Stations






























Interactive Weather Map New forecast layout! Learn more

10-Day Weather Forecast

Advertisements
Track Severe Weather on mobile